Sunday, November 18, 2018, 2:22 PM GMT
Back to Local

CYSJ, Saint John, N. B.

Location: , , Canada Lat: 45.333
Local Time: 2:22 PM GMT (14:22 GMT) Lon: -65.883
Time Zone: GMT Elev: 337 ft

Show me the last for .
Show Decoded

2018-11-18 14:00 METAR CYSJ 181400Z 32008G15KT 15SM SCT025 M04/M08 A3030 RMK SC3 SLP270 =
2018-11-18 13:00 METAR CYSJ 181300Z 33006KT 15SM FEW030 M06/M09 A3028 RMK SC1 SLP263 =
2018-11-18 12:00 METAR CYSJ 181200Z 31004KT 15SM FEW030 M07/M09 A3026 RMK SC1 SLP254 =
2018-11-18 11:00 METAR CYSJ 181100Z 33008KT 15SM FEW030 M06/M08 A3021 RMK SC1 SC TR SLP239 =
2018-11-18 10:00 METAR CYSJ 181000Z 34011G17KT 15SM FEW072 M05/M08 A3018 RMK AC1 SLP227 =
2018-11-18 09:00 METAR CYSJ 180900Z 34014G21KT 15SM FEW072 M04/M08 A3015 RMK AC2 SLP218 =
2018-11-18 08:00 METAR CYSJ 180800Z 33013KT 15SM BKN072 M03/M06 A3013 RMK AC5 SLP209 =
2018-11-18 07:00 METAR CYSJ 180700Z 31010G15KT 15SM OVC072 M01/M05 A3011 RMK AC8 SLP205 =
2018-11-18 06:00 METAR CYSJ 180600Z 31012G17KT 15SM OVC070 M01/M05 A3008 RMK AC8 SLP193 =
2018-11-18 05:00 METAR CYSJ 180500Z 30010KT 15SM OVC070 M01/M04 A3006 RMK AC8 SLP186 =
2018-11-18 04:00 METAR CYSJ 180400Z 32014KT 15SM OVC072 M01/M04 A3004 RMK AC8 SLP180 =
2018-11-18 03:00 METAR CYSJ 180300Z 27004KT 15SM BKN078 M02/M04 A3004 RMK AC6 SLP181 =
2018-11-18 02:00 METAR CYSJ 180200Z 27005KT 15SM SCT077 M02/M04 A3003 RMK AC3 SLP178 =
2018-11-18 01:00 METAR CYSJ 180100Z 26007KT 15SM FEW035 M02/M04 A3001 RMK SC2 SLP169 =
2018-11-18 00:00 METAR CYSJ 180000Z 25007KT 15SM BKN035 M01/M03 A2999 RMK SC5 SLP164 =
2018-11-17 23:00 METAR CYSJ 172300Z 27008KT 15SM BKN033 M01/M03 A2998 RMK SC6 SLP159 =
2018-11-17 22:00 METAR CYSJ 172200Z 25004KT 15SM BKN035 M01/M03 A2995 RMK SC5 SLP149 =
2018-11-17 21:00 METAR CYSJ 172100Z 27006KT 15SM BKN035 BKN250 00/M02 A2992 RMK SC6CI1 SLP139 =
2018-11-17 20:00 METAR CYSJ 172000Z 25004KT 230V290 15SM BKN032 OVC040 00/M02 A2990 RMK SC6SC2
                 SLP133 =
2018-11-17 19:00 METAR CYSJ 171900Z 28007KT 15SM BKN030 BKN250 00/M03 A2988 RMK SC6CI1 SLP125 =
2018-11-17 18:00 METAR CYSJ 171800Z 28014G19KT 15SM BKN025 00/M04 A2987 RMK SC5 SLP121 =
2018-11-17 17:00 METAR CYSJ 171700Z 28012G18KT 15SM BKN025 M00/M04 A2987 RMK SC6 SLP122 =
2018-11-17 16:00 METAR CYSJ 171600Z 29011G18KT 15SM FEW025 FEW150 M01/M06 A2985 RMK SC1AC1 SLP116
                 =
2018-11-17 15:00 METAR CYSJ 171500Z 28011G16KT 15SM FEW020 M02/M06 A2984 RMK CF1 SLP113 =

Support USWX by starting your Amazon purchase here.